Terminal Aerodrome Forecast
Issued by NWS

Home | Current Version | Previous Version | Text Only | Print | Product List | Glossary On
Versions: 1 2 3 4 5 6 7 8 9 10 11 12 13 14 15 16 17 18 19 20 21
000
FTUS43 KDVN 271100
TAFCID
TAF
KCID 271121Z 2712/2812 05006KT P6SM SCT040 BKN100
      TEMPO 2712/2713 -SHRA BKN040
     FM271500 08005KT P6SM SCT040 BKN200 PROB30 2809/2812 5SM TSRA
      BKN035CB=

USA.gov is the U.S. government's official web portal to all federal, state and local government web resources and services.